Time;durP1;ratioP1;P1;durP2;ratioP2;P2;SDS_P1;SDS_P2;PMS_P1;PMS_P2;Temp;Humidity;BMP_temperature;BMP_pressure;BME280_temperature;BME280_humidity;BME280_pressure;Samples;Min_cycle;Max_cycle;Signal;HPM_P1;HPM_P2
2023/01/10 00:00:35;;;;;;;7.65;1.88;;;7.40;92.00;;;;;;5135452;28;20023;-75
2023/01/10 00:03:07;;;;;;;4.70;1.50;;;7.30;91.80;;;;;;5119553;28;20129;-75
2023/01/10 00:05:36;;;;;;;12.52;2.50;;;7.40;91.80;;;;;;5136386;28;20102;-76
2023/01/10 00:08:02;;;;;;;4.10;1.80;;;7.30;91.80;;;;;;5136282;28;20023;-76
2023/01/10 00:10:28;;;;;;;6.00;2.08;;;7.30;91.80;;;;;;5135248;28;20019;-75
2023/01/10 00:15:38;;;;;;;7.32;1.75;;;7.30;91.70;;;;;;5135661;28;20038;-75
2023/01/10 00:18:04;;;;;;;9.77;2.53;;;7.20;92.00;;;;;;5135257;28;20387;-75
2023/01/10 00:20:30;;;;;;;5.20;1.45;;;7.20;91.70;;;;;;5118024;28;20031;-75
2023/01/10 00:22:56;;;;;;;4.03;1.60;;;7.10;91.60;;;;;;5136043;28;20086;-75
2023/01/10 00:25:22;;;;;;;10.23;2.42;;;7.10;91.60;;;;;;5134911;28;20386;-75
2023/01/10 00:27:52;;;;;;;9.27;2.10;;;7.10;91.40;;;;;;5135069;28;20020;-75
2023/01/10 00:30:18;;;;;;;4.22;1.52;;;7.10;91.50;;;;;;5135132;28;20031;-75
2023/01/10 00:32:44;;;;;;;4.85;1.77;;;7.10;91.50;;;;;;5135974;28;20032;-76
2023/01/10 00:35:11;;;;;;;6.03;1.98;;;7.00;91.40;;;;;;5135819;27;20031;-75
2023/01/10 00:37:38;;;;;;;7.13;1.88;;;7.00;91.80;;;;;;5134815;28;20036;-76
2023/01/10 00:40:09;;;;;;;5.78;1.48;;;7.00;91.40;;;;;;5135716;28;20467;-75
2023/01/10 00:45:23;;;;;;;4.05;1.40;;;7.00;91.50;;;;;;5135611;28;20035;-76
2023/01/10 00:47:49;;;;;;;4.80;1.27;;;6.90;91.90;;;;;;5135570;28;20016;-75
2023/01/10 00:50:16;;;;;;;4.22;1.25;;;6.90;91.60;;;;;;5134386;28;20024;-75
2023/01/10 00:52:41;;;;;;;8.82;1.48;;;6.90;91.50;;;;;;5134530;28;20020;-75
2023/01/10 00:55:07;;;;;;;7.18;1.60;;;6.90;91.50;;;;;;5134381;28;20040;-76
2023/01/10 00:57:33;;;;;;;6.10;1.52;;;6.90;91.50;;;;;;5134326;28;20043;-75
2023/01/10 00:59:58;;;;;;;5.15;1.38;;;6.90;91.50;;;;;;5100389;28;20043;-76
2023/01/10 01:02:24;;;;;;;2.97;1.33;;;6.90;91.40;;;;;;5134385;28;20028;-75
2023/01/10 01:04:50;;;;;;;5.05;1.55;;;6.80;91.40;;;;;;5117150;28;20039;-75
2023/01/10 01:07:15;;;;;;;5.28;1.50;;;6.80;91.40;;;;;;5134163;28;20050;-75
2023/01/10 01:12:25;;;;;;;5.13;1.77;;;6.70;91.20;;;;;;5134555;28;20369;-75
2023/01/10 01:14:51;;;;;;;4.68;1.42;;;6.70;91.40;;;;;;5117016;28;20027;-75
2023/01/10 01:17:17;;;;;;;8.18;1.90;;;6.70;91.40;;;;;;5134975;28;20466;-75
2023/01/10 01:19:42;;;;;;;5.97;1.50;;;6.60;91.40;;;;;;5134937;28;20020;-75
2023/01/10 01:22:08;;;;;;;11.30;2.05;;;6.70;91.30;;;;;;5099985;28;20032;-74
2023/01/10 01:24:34;;;;;;;7.30;1.70;;;6.70;91.40;;;;;;5133842;28;20047;-75
2023/01/10 01:26:59;;;;;;;4.93;2.40;;;6.70;91.40;;;;;;5133874;28;20024;-75
2023/01/10 01:29:25;;;;;;;6.63;1.80;;;6.70;91.30;;;;;;5133708;28;20020;-75
2023/01/10 01:31:51;;;;;;;9.50;2.83;;;6.70;91.30;;;;;;5133816;28;20023;-74
2023/01/10 01:34:16;;;;;;;4.50;1.88;;;6.70;91.20;;;;;;5116735;28;20032;-75
2023/01/10 01:36:42;;;;;;;8.07;1.95;;;6.70;91.10;;;;;;5116410;28;20060;-75
2023/01/10 01:39:07;;;;;;;7.65;1.80;;;6.70;91.10;;;;;;5134593;28;20019;-75
2023/01/10 01:44:18;;;;;;;8.20;2.22;;;6.70;91.40;;;;;;5133901;28;20118;-75
2023/01/10 01:47:03;;;;;;;6.53;1.67;;;6.70;91.00;;;;;;5134447;28;20050;-75
2023/01/10 01:49:31;;;;;;;7.85;1.77;;;6.60;91.00;;;;;;5134519;28;20047;-75
2023/01/10 01:52:02;;;;;;;5.18;2.00;;;6.60;91.10;;;;;;5133345;28;20070;-75
2023/01/10 01:54:29;;;;;;;4.47;2.08;;;6.60;91.20;;;;;;5133375;28;20114;-75
2023/01/10 01:57:02;;;;;;;8.00;1.75;;;6.70;91.20;;;;;;5134308;28;20031;-75
2023/01/10 01:59:51;;;;;;;7.38;2.35;;;6.60;91.40;;;;;;5134306;28;20079;-75
2023/01/10 02:02:20;;;;;;;5.45;2.15;;;6.60;91.60;;;;;;5132878;28;20023;-76
2023/01/10 02:04:52;;;;;;;7.60;2.10;;;6.70;91.80;;;;;;5133087;28;20046;-75
2023/01/10 02:07:18;;;;;;;4.20;1.80;;;6.70;91.80;;;;;;5134190;28;20024;-76
2023/01/10 02:09:58;;;;;;;5.75;1.70;;;6.70;91.80;;;;;;5116217;28;20055;-75
2023/01/10 02:12:25;;;;;;;5.65;1.88;;;6.70;91.90;;;;;;5134276;28;20015;-75
2023/01/10 02:14:52;;;;;;;7.45;1.50;;;6.70;92.00;;;;;;5134094;28;20032;-75
2023/01/10 02:17:18;;;;;;;4.95;1.92;;;6.70;92.20;;;;;;5133184;28;20023;-75
2023/01/10 02:20:00;;;;;;;5.30;1.70;;;6.60;92.20;;;;;;5115999;28;20039;-76
2023/01/10 02:22:50;;;;;;;8.40;2.25;;;6.60;92.30;;;;;;5134074;28;20043;-75
2023/01/10 02:25:34;;;;;;;8.68;1.83;;;6.60;92.40;;;;;;5133861;28;20035;-75
2023/01/10 02:28:21;;;;;;;7.43;2.45;;;6.60;92.50;;;;;;5132947;28;20087;-75
2023/01/10 02:31:38;;;;;;;12.60;2.83;;;6.60;92.50;;;;;;5134005;28;20030;-75
2023/01/10 02:34:18;;;;;;;8.85;2.22;;;6.60;92.50;;;;;;5077488;28;20042;-76
2023/01/10 02:36:47;;;;;;;8.88;2.40;;;6.60;92.70;;;;;;5133699;28;20081;-76
2023/01/10 02:39:41;;;;;;;8.45;2.38;;;6.60;92.60;;;;;;5133774;28;20028;-75
2023/01/10 02:42:11;;;;;;;8.68;2.60;;;6.60;92.70;;;;;;5081512;28;20028;-75
2023/01/10 02:44:49;;;;;;;12.32;3.58;;;6.60;92.80;;;;;;5132846;28;20027;-76
2023/01/10 02:47:15;;;;;;;6.70;3.13;;;6.60;92.80;;;;;;5133804;28;20020;-75
2023/01/10 02:49:46;;;;;;;9.40;3.00;;;6.60;92.90;;;;;;5133766;28;20068;-75
2023/01/10 02:52:22;;;;;;;7.88;2.88;;;6.70;92.90;;;;;;5132693;28;20028;-75
2023/01/10 02:54:50;;;;;;;8.75;2.78;;;6.70;92.80;;;;;;5133867;28;20031;-75
2023/01/10 02:57:55;;;;;;;8.98;3.00;;;6.70;92.80;;;;;;5132777;28;20016;-75
2023/01/10 03:00:30;;;;;;;9.65;3.15;;;6.80;92.80;;;;;;5132662;28;20026;-75
2023/01/10 03:03:01;;;;;;;12.27;2.88;;;6.70;92.80;;;;;;5132687;28;20028;-75
2023/01/10 03:05:52;;;;;;;5.40;2.05;;;6.70;92.90;;;;;;5132476;28;20034;-75
2023/01/10 03:08:47;;;;;;;12.88;3.30;;;6.70;93.10;;;;;;5133591;28;20059;-75
2023/01/10 03:11:13;;;;;;;10.82;2.70;;;6.70;93.10;;;;;;5133758;28;20472;-75
2023/01/10 03:13:54;;;;;;;10.20;2.97;;;6.70;93.10;;;;;;5137424;28;20026;-75
2023/01/10 03:16:25;;;;;;;7.10;2.53;;;6.70;93.00;;;;;;5137433;28;20020;-75
2023/01/10 03:18:59;;;;;;;11.65;3.17;;;6.70;93.00;;;;;;5136394;28;20016;-75
2023/01/10 03:21:28;;;;;;;6.40;2.83;;;6.70;93.00;;;;;;5136307;28;20042;-75
2023/01/10 03:23:58;;;;;;;9.18;2.72;;;6.60;93.00;;;;;;5136108;28;20027;-75
2023/01/10 03:26:43;;;;;;;11.85;2.30;;;6.70;93.00;;;;;;5136191;28;20012;-75
2023/01/10 03:29:13;;;;;;;7.25;2.38;;;6.70;92.90;;;;;;5137185;28;20028;-75
2023/01/10 03:31:50;;;;;;;8.98;2.45;;;6.70;92.90;;;;;;5136103;28;20016;-75
2023/01/10 03:34:16;;;;;;;6.45;2.00;;;6.70;92.90;;;;;;5136082;28;20091;-76
2023/01/10 03:36:57;;;;;;;10.25;2.75;;;6.70;92.90;;;;;;5101801;28;20044;-75
2023/01/10 03:39:33;;;;;;;10.88;2.47;;;6.70;92.80;;;;;;5136003;28;20042;-75
2023/01/10 03:42:13;;;;;;;6.57;1.95;;;6.70;92.70;;;;;;5135937;28;20024;-76
2023/01/10 03:45:08;;;;;;;10.93;2.30;;;6.70;92.70;;;;;;5135769;28;20047;-75
2023/01/10 03:47:44;;;;;;;5.72;1.73;;;6.70;92.70;;;;;;5135831;28;20025;-75
2023/01/10 03:50:17;;;;;;;8.88;2.10;;;6.60;92.60;;;;;;5136889;28;20035;-75
2023/01/10 03:52:43;;;;;;;5.47;1.80;;;6.60;92.70;;;;;;5135660;28;20030;-75
2023/01/10 03:55:11;;;;;;;6.25;2.15;;;6.60;92.80;;;;;;5118562;28;20031;-76
2023/01/10 03:57:40;;;;;;;6.55;1.80;;;6.60;92.80;;;;;;5135609;28;20023;-75
2023/01/10 04:00:06;;;;;;;6.60;2.15;;;6.60;92.80;;;;;;5119041;28;20095;-75
2023/01/10 04:02:32;;;;;;;6.38;1.85;;;6.60;92.80;;;;;;5118577;28;20031;-75
2023/01/10 04:04:58;;;;;;;8.20;2.15;;;6.60;92.70;;;;;;5118403;28;20046;-75
2023/01/10 04:07:24;;;;;;;6.50;1.80;;;6.50;92.80;;;;;;5101511;28;20037;-75
2023/01/10 04:09:50;;;;;;;11.20;2.40;;;6.60;92.80;;;;;;5136274;28;20020;-75
2023/01/10 04:12:16;;;;;;;8.10;2.17;;;6.60;92.60;;;;;;5135369;28;20099;-75
2023/01/10 04:14:45;;;;;;;6.85;1.52;;;6.60;92.50;;;;;;5136380;28;20035;-76
2023/01/10 04:17:11;;;;;;;9.05;1.80;;;6.60;92.50;;;;;;5135150;28;20026;-76
2023/01/10 04:19:37;;;;;;;6.80;2.25;;;6.50;92.40;;;;;;5135197;28;20027;-75
2023/01/10 04:22:04;;;;;;;6.45;2.28;;;6.50;92.80;;;;;;5118099;28;20039;-75
2023/01/10 04:24:30;;;;;;;5.88;1.67;;;6.50;92.40;;;;;;5134365;28;20050;-75
2023/01/10 04:26:56;;;;;;;6.30;1.80;;;6.50;92.40;;;;;;5135035;28;20031;-75
2023/01/10 04:29:21;;;;;;;5.60;1.42;;;6.50;92.40;;;;;;5118015;28;20035;-75
2023/01/10 04:31:47;;;;;;;5.80;1.70;;;6.40;92.30;;;;;;5135045;28;20024;-75
2023/01/10 04:34:13;;;;;;;6.10;2.00;;;6.40;92.30;;;;;;5100963;28;20035;-75
2023/01/10 04:36:38;;;;;;;5.90;2.03;;;6.40;92.30;;;;;;5134703;28;20069;-75
2023/01/10 04:39:04;;;;;;;7.93;1.70;;;6.40;92.30;;;;;;5134844;28;20032;-75
2023/01/10 04:41:30;;;;;;;7.63;2.03;;;6.50;92.30;;;;;;5117710;28;20047;-75
2023/01/10 04:43:55;;;;;;;7.13;1.95;;;6.50;92.20;;;;;;5134727;28;20049;-75
2023/01/10 04:46:21;;;;;;;8.15;2.08;;;6.50;92.20;;;;;;5100772;28;20114;-75
2023/01/10 04:48:47;;;;;;;4.88;1.63;;;6.40;92.60;;;;;;5134673;28;20043;-74
2023/01/10 04:51:12;;;;;;;8.13;2.00;;;6.40;92.20;;;;;;5134633;28;20055;-75
2023/01/10 04:53:38;;;;;;;11.65;2.17;;;6.40;92.20;;;;;;5100547;28;20024;-75
2023/01/10 04:56:05;;;;;;;6.13;2.08;;;6.40;92.30;;;;;;5100573;28;20034;-75
2023/01/10 04:58:33;;;;;;;4.90;1.77;;;6.40;92.30;;;;;;5134336;28;20027;-76
2023/01/10 05:00:58;;;;;;;9.80;1.77;;;6.50;92.20;;;;;;5134380;28;20036;-75
2023/01/10 05:03:24;;;;;;;9.00;1.98;;;6.40;92.20;;;;;;5117292;28;20027;-75
2023/01/10 05:05:50;;;;;;;13.57;1.85;;;6.40;92.70;;;;;;5117221;28;20036;-75
2023/01/10 05:08:15;;;;;;;5.40;1.48;;;6.40;92.20;;;;;;5134208;28;20019;-75
2023/01/10 05:10:41;;;;;;;7.07;2.15;;;6.40;92.30;;;;;;5117105;28;20032;-75
2023/01/10 05:13:06;;;;;;;8.77;2.10;;;6.40;92.20;;;;;;5134311;28;20028;-75
2023/01/10 05:15:32;;;;;;;10.18;2.20;;;6.40;92.20;;;;;;5134109;28;20035;-75
2023/01/10 05:17:59;;;;;;;11.27;1.85;;;6.30;92.10;;;;;;5117018;28;20027;-75
2023/01/10 05:20:24;;;;;;;7.82;2.05;;;6.30;92.10;;;;;;5133922;28;20035;-75
2023/01/10 05:22:50;;;;;;;5.75;1.70;;;6.20;92.30;;;;;;5116879;28;20112;-75
2023/01/10 05:25:16;;;;;;;8.10;1.60;;;6.20;92.30;;;;;;5133882;28;20031;-75
2023/01/10 05:27:42;;;;;;;6.30;1.98;;;6.20;92.80;;;;;;5099817;28;20020;-75
2023/01/10 05:30:10;;;;;;;8.18;2.10;;;6.20;92.40;;;;;;5133833;28;20046;-75
2023/01/10 05:32:36;;;;;;;12.38;1.90;;;6.20;92.30;;;;;;5133797;28;20027;-75
2023/01/10 05:35:02;;;;;;;6.55;1.58;;;6.20;92.40;;;;;;5132817;28;20461;-75
2023/01/10 05:37:28;;;;;;;4.65;1.55;;;6.20;92.50;;;;;;5133372;28;20051;-75
2023/01/10 05:39:53;;;;;;;6.35;1.70;;;6.20;92.60;;;;;;5133639;28;20085;-75
2023/01/10 05:42:19;;;;;;;6.78;1.42;;;6.20;92.50;;;;;;5116723;28;20024;-75
2023/01/10 05:44:45;;;;;;;6.28;1.77;;;6.20;92.60;;;;;;5099525;28;20035;-75
2023/01/10 05:47:10;;;;;;;10.85;1.50;;;6.30;92.70;;;;;;5133438;28;20046;-75
2023/01/10 05:49:36;;;;;;;9.82;2.28;;;6.30;92.70;;;;;;5116371;28;20045;-75
2023/01/10 05:52:02;;;;;;;10.02;1.80;;;6.30;92.60;;;;;;5099740;28;20027;-75
2023/01/10 05:54:28;;;;;;;11.07;2.30;;;6.30;92.50;;;;;;5116207;28;20031;-75
2023/01/10 05:56:54;;;;;;;7.40;1.73;;;6.40;92.50;;;;;;5133421;28;20027;-75
2023/01/10 05:59:20;;;;;;;10.57;1.60;;;6.30;92.50;;;;;;5133278;28;20099;-75
2023/01/10 06:01:45;;;;;;;14.32;1.75;;;6.30;92.50;;;;;;5133375;28;20041;-75
2023/01/10 06:04:11;;;;;;;12.57;2.33;;;6.40;92.50;;;;;;5133237;28;20394;-75
2023/01/10 06:06:36;;;;;;;9.02;2.03;;;6.40;92.50;;;;;;5099247;28;20031;-75
2023/01/10 06:09:02;;;;;;;7.00;1.77;;;6.40;92.40;;;;;;5116064;28;20030;-75
2023/01/10 06:11:28;;;;;;;8.98;1.88;;;6.40;92.40;;;;;;5133154;28;20019;-75
2023/01/10 06:13:57;;;;;;;8.68;1.58;;;6.40;92.40;;;;;;5133056;28;20156;-75
2023/01/10 06:16:24;;;;;;;11.02;1.73;;;6.40;92.40;;;;;;5133061;28;20039;-75
2023/01/10 06:18:49;;;;;;;11.73;1.90;;;6.50;92.30;;;;;;5116087;28;20019;-75
2023/01/10 06:21:15;;;;;;;14.80;2.00;;;6.50;92.30;;;;;;5133032;28;20024;-75
2023/01/10 06:23:41;;;;;;;4.50;1.48;;;6.40;92.20;;;;;;5133933;28;20031;-75
2023/01/10 06:26:06;;;;;;;9.40;1.83;;;6.40;92.30;;;;;;5115844;28;20034;-75
2023/01/10 06:28:32;;;;;;;12.10;2.15;;;6.40;92.30;;;;;;5132982;28;20466;-75
2023/01/10 06:30:57;;;;;;;9.88;1.35;;;6.50;92.30;;;;;;5115923;28;20042;-75
2023/01/10 06:33:23;;;;;;;7.03;1.60;;;6.50;92.70;;;;;;5133030;28;20034;-75
2023/01/10 06:35:49;;;;;;;11.95;2.28;;;6.50;92.40;;;;;;5133654;28;20042;-75
2023/01/10 06:38:15;;;;;;;6.88;2.20;;;6.50;92.40;;;;;;5132924;28;20039;-76
2023/01/10 06:40:40;;;;;;;8.20;1.85;;;6.50;92.40;;;;;;5115840;28;20031;-75
2023/01/10 06:43:06;;;;;;;8.88;2.28;;;6.60;92.30;;;;;;5115905;28;20028;-75
2023/01/10 06:45:32;;;;;;;14.50;2.63;;;6.60;92.30;;;;;;5115651;28;20043;-75
2023/01/10 06:47:58;;;;;;;9.65;1.50;;;6.60;92.20;;;;;;5118951;28;20100;-75
2023/01/10 06:50:24;;;;;;;12.05;2.15;;;6.60;92.20;;;;;;5137037;28;20027;-75
2023/01/10 06:52:57;;;;;;;8.50;1.63;;;6.60;92.10;;;;;;5136947;28;20108;-76
2023/01/10 06:55:23;;;;;;;10.55;2.10;;;6.60;92.20;;;;;;5137745;28;20034;-75
2023/01/10 06:57:57;;;;;;;9.95;2.50;;;6.60;92.20;;;;;;5119707;28;20031;-75
2023/01/10 07:00:26;;;;;;;9.65;1.63;;;6.60;92.70;;;;;;5136803;28;20023;-75
2023/01/10 07:02:53;;;;;;;13.70;1.70;;;6.60;92.20;;;;;;5136627;28;20023;-75
2023/01/10 07:05:19;;;;;;;15.40;2.55;;;6.60;92.20;;;;;;5136590;28;20382;-74
2023/01/10 07:07:45;;;;;;;12.60;2.78;;;6.60;92.10;;;;;;5136572;28;20052;-76
2023/01/10 07:10:10;;;;;;;12.07;2.47;;;6.60;92.20;;;;;;5136555;28;20029;-75
2023/01/10 07:12:36;;;;;;;7.10;1.60;;;6.50;92.20;;;;;;5137243;28;20464;-75
2023/01/10 07:15:02;;;;;;;10.60;1.42;;;6.60;92.30;;;;;;5119483;28;20032;-75
2023/01/10 07:17:28;;;;;;;9.68;1.92;;;6.50;92.30;;;;;;5137318;28;20035;-75
2023/01/10 07:19:54;;;;;;;10.35;2.47;;;6.50;92.30;;;;;;5119307;28;20038;-75
2023/01/10 07:22:20;;;;;;;7.88;1.88;;;6.40;92.30;;;;;;5119253;28;20019;-75
2023/01/10 07:24:46;;;;;;;8.30;2.30;;;6.40;92.20;;;;;;5136216;28;20043;-75
2023/01/10 07:27:11;;;;;;;6.95;1.33;;;6.40;92.10;;;;;;5119229;28;20082;-75
2023/01/10 07:29:37;;;;;;;7.80;1.60;;;6.40;92.20;;;;;;5136246;28;20024;-75
2023/01/10 07:32:03;;;;;;;11.80;1.73;;;6.30;92.00;;;;;;5136145;28;20031;-75
2023/01/10 07:34:28;;;;;;;5.45;1.20;;;6.30;92.10;;;;;;5137062;28;20035;-75
2023/01/10 07:36:54;;;;;;;11.30;2.42;;;6.20;92.20;;;;;;5136024;28;20060;-76
2023/01/10 07:39:20;;;;;;;9.18;2.15;;;6.20;92.30;;;;;;5136863;28;20031;-75
2023/01/10 07:41:49;;;;;;;6.40;2.25;;;6.10;92.10;;;;;;5118876;28;20042;-75
2023/01/10 07:44:15;;;;;;;10.82;2.03;;;6.10;92.20;;;;;;5136784;28;20039;-75
2023/01/10 07:46:41;;;;;;;11.70;1.67;;;6.10;92.20;;;;;;5135915;28;20030;-75
2023/01/10 07:49:06;;;;;;;9.98;1.95;;;6.00;92.30;;;;;;5135770;28;20023;-75
2023/01/10 07:51:32;;;;;;;9.45;2.15;;;6.00;92.40;;;;;;5135637;28;20069;-76
2023/01/10 07:53:57;;;;;;;8.95;1.30;;;6.00;92.70;;;;;;5135799;28;20020;-75
2023/01/10 07:56:23;;;;;;;9.50;1.77;;;6.00;92.80;;;;;;5135629;28;20059;-75
2023/01/10 07:58:49;;;;;;;5.03;1.70;;;6.00;92.80;;;;;;5134628;28;20031;-75
2023/01/10 08:01:15;;;;;;;6.80;1.70;;;6.00;92.80;;;;;;5135678;28;20107;-75
2023/01/10 08:03:41;;;;;;;14.32;1.88;;;6.10;92.70;;;;;;5101589;28;20024;-75
2023/01/10 08:06:11;;;;;;;8.27;2.75;;;6.00;92.80;;;;;;5101421;28;20032;-76
2023/01/10 08:08:37;;;;;;;7.57;1.27;;;6.10;92.90;;;;;;5135380;28;20016;-76
2023/01/10 08:11:03;;;;;;;8.55;2.38;;;6.10;92.90;;;;;;5135468;28;20020;-76
2023/01/10 08:13:30;;;;;;;11.73;2.03;;;6.10;93.00;;;;;;5135361;28;20047;-76
2023/01/10 08:15:56;;;;;;;12.65;2.20;;;6.10;92.90;;;;;;5135343;28;20048;-75
2023/01/10 08:18:23;;;;;;;12.32;2.72;;;6.20;92.90;;;;;;5135167;28;20028;-75
2023/01/10 08:20:49;;;;;;;12.55;1.63;;;6.20;93.00;;;;;;5118127;28;20134;-76
2023/01/10 08:23:15;;;;;;;11.88;2.03;;;6.20;93.10;;;;;;5135271;28;20034;-75
2023/01/10 08:25:41;;;;;;;10.57;2.10;;;6.20;92.70;;;;;;5135048;28;20043;-75
2023/01/10 08:28:07;;;;;;;9.43;1.88;;;6.20;92.60;;;;;;5136000;28;20024;-75
2023/01/10 08:30:32;;;;;;;11.05;1.75;;;6.20;92.60;;;;;;5117926;28;20032;-75
2023/01/10 08:33:01;;;;;;;5.68;1.27;;;6.20;92.80;;;;;;5117829;28;20030;-75
2023/01/10 08:35:27;;;;;;;4.70;1.88;;;6.30;92.70;;;;;;5135677;28;20019;-75
2023/01/10 08:37:52;;;;;;;15.13;3.38;;;6.20;92.70;;;;;;5135896;28;20061;-75
2023/01/10 08:40:18;;;;;;;8.85;1.60;;;6.30;93.00;;;;;;5134731;28;20042;-76
2023/01/10 08:42:44;;;;;;;10.82;1.77;;;6.30;93.00;;;;;;5117711;28;20027;-75
2023/01/10 08:45:10;;;;;;;14.65;1.83;;;6.40;92.60;;;;;;5117567;28;20036;-75
2023/01/10 08:47:35;;;;;;;5.60;1.92;;;6.40;92.60;;;;;;5117622;28;20046;-75
2023/01/10 08:50:01;;;;;;;7.47;1.33;;;6.40;92.60;;;;;;5100679;28;20458;-75
2023/01/10 08:52:27;;;;;;;10.65;1.48;;;6.50;92.30;;;;;;5100735;28;20027;-75
2023/01/10 08:54:52;;;;;;;8.95;2.17;;;6.60;92.00;;;;;;5117425;28;20028;-75
2023/01/10 08:57:18;;;;;;;13.10;2.22;;;6.70;92.30;;;;;;5100503;28;20027;-76
2023/01/10 08:59:44;;;;;;;8.68;1.50;;;6.80;91.90;;;;;;5134588;28;20057;-76
2023/01/10 09:02:13;;;;;;;10.15;2.13;;;6.80;91.40;;;;;;5117312;28;20039;-75
2023/01/10 09:04:39;;;;;;;9.32;1.80;;;6.90;91.70;;;;;;5135192;28;20031;-75
2023/01/10 09:07:04;;;;;;;5.03;1.40;;;6.90;91.30;;;;;;5134226;28;20024;-75
2023/01/10 09:09:30;;;;;;;12.50;2.00;;;6.80;91.20;;;;;;5117011;28;20027;-75
2023/01/10 09:11:56;;;;;;;5.97;1.30;;;6.80;91.30;;;;;;5117293;28;20022;-75
2023/01/10 09:14:22;;;;;;;7.38;2.05;;;6.80;91.80;;;;;;5117245;28;20024;-75
2023/01/10 09:16:50;;;;;;;7.20;1.80;;;6.70;91.30;;;;;;5117012;28;20034;-76
2023/01/10 09:19:16;;;;;;;10.32;2.05;;;6.70;91.10;;;;;;5133968;28;20024;-75
2023/01/10 09:21:42;;;;;;;14.15;2.78;;;6.80;91.40;;;;;;5134197;28;20120;-75
2023/01/10 09:24:07;;;;;;;10.20;2.08;;;6.80;91.30;;;;;;5133724;28;20039;-76
2023/01/10 09:26:33;;;;;;;13.60;2.28;;;6.80;91.30;;;;;;5133950;28;20024;-75
2023/01/10 09:28:59;;;;;;;7.68;1.88;;;6.90;91.00;;;;;;5116853;28;20051;-76
2023/01/10 09:31:24;;;;;;;13.60;1.30;;;6.90;91.00;;;;;;5116672;28;20027;-76
2023/01/10 09:33:50;;;;;;;11.75;1.63;;;6.90;90.80;;;;;;5116747;28;20032;-75
2023/01/10 09:36:15;;;;;;;10.55;1.95;;;6.90;91.00;;;;;;5133565;28;20063;-75
2023/01/10 09:38:41;;;;;;;8.40;1.60;;;6.90;91.10;;;;;;5133714;28;20049;-76
2023/01/10 09:41:48;;;;;;;7.03;2.10;;;6.80;90.80;;;;;;5133532;28;20027;-75
2023/01/10 09:44:36;;;;;;;10.27;2.20;;;6.80;91.30;;;;;;5094832;28;20061;-75
2023/01/10 09:47:16;;;;;;;12.60;1.67;;;6.80;91.30;;;;;;5133523;28;20016;-75
2023/01/10 09:50:22;;;;;;;10.13;1.90;;;6.80;91.40;;;;;;5133482;28;20020;-75
2023/01/10 09:52:55;;;;;;;11.18;2.00;;;6.80;91.40;;;;;;5089226;28;20061;-75
2023/01/10 09:55:32;;;;;;;9.27;1.35;;;6.70;91.60;;;;;;5134470;28;20019;-75
2023/01/10 09:58:02;;;;;;;13.85;2.63;;;6.70;91.70;;;;;;5133300;28;20034;-75
2023/01/10 10:00:39;;;;;;;15.23;2.03;;;6.70;91.80;;;;;;5134357;28;20035;-76
2023/01/10 10:03:21;;;;;;;9.48;1.77;;;6.70;91.90;;;;;;5134338;28;20043;-76
2023/01/10 10:05:48;;;;;;;8.15;1.85;;;6.70;91.80;;;;;;5133227;28;20058;-75
2023/01/10 10:08:17;;;;;;;12.18;1.83;;;6.80;91.70;;;;;;5116365;28;20039;-76
2023/01/10 10:10:59;;;;;;;6.10;2.17;;;6.80;91.90;;;;;;5133114;28;20011;-75
2023/01/10 10:13:24;;;;;;;12.60;1.67;;;6.80;91.70;;;;;;5134195;28;20020;-76
2023/01/10 10:16:07;;;;;;;8.52;1.85;;;6.80;91.70;;;;;;5134057;28;20024;-76
2023/01/10 10:18:47;;;;;;;8.98;1.50;;;6.80;91.70;;;;;;5133232;28;20047;-76
2023/01/10 10:21:34;;;;;;;8.73;1.40;;;6.80;91.70;;;;;;5132598;28;20034;-75
2023/01/10 10:24:19;;;;;;;5.60;1.15;;;6.80;91.50;;;;;;5134104;28;20091;-76
2023/01/10 10:26:55;;;;;;;8.77;1.20;;;6.90;91.70;;;;;;5092220;28;20055;-75
2023/01/10 10:29:47;;;;;;;8.65;2.40;;;6.90;91.60;;;;;;5133950;28;20024;-75
2023/01/10 10:32:38;;;;;;;10.27;2.47;;;6.90;91.60;;;;;;5133961;28;20024;-76
2023/01/10 10:35:10;;;;;;;10.85;2.13;;;6.90;91.50;;;;;;5132901;28;20020;-76
2023/01/10 10:37:44;;;;;;;9.07;1.88;;;7.00;91.60;;;;;;5133691;28;20063;-76
2023/01/10 10:40:13;;;;;;;9.05;1.58;;;7.00;91.80;;;;;;5132935;28;20066;-75
2023/01/10 10:42:43;;;;;;;9.73;2.30;;;7.00;91.40;;;;;;5132745;28;20173;-76
2023/01/10 10:45:32;;;;;;;4.95;1.55;;;7.00;91.60;;;;;;5132930;28;20020;-75
2023/01/10 10:48:06;;;;;;;7.43;2.47;;;7.00;91.50;;;;;;5133795;28;20027;-75
2023/01/10 10:50:37;;;;;;;9.43;2.20;;;7.00;91.30;;;;;;5132966;28;20016;-75
2023/01/10 10:53:04;;;;;;;10.68;2.10;;;7.00;91.90;;;;;;5132730;28;20023;-75
2023/01/10 10:55:35;;;;;;;15.57;2.30;;;7.00;91.60;;;;;;5132764;28;20106;-76
2023/01/10 10:58:06;;;;;;;11.20;2.30;;;7.10;91.50;;;;;;5132688;28;20087;-76
2023/01/10 11:00:31;;;;;;;7.80;2.10;;;7.10;91.70;;;;;;5132679;28;20024;-75
2023/01/10 11:03:15;;;;;;;11.85;1.55;;;7.10;91.10;;;;;;5132721;28;20053;-75
2023/01/10 11:05:45;;;;;;;11.27;2.25;;;7.00;91.20;;;;;;5132551;28;20035;-76
2023/01/10 11:08:14;;;;;;;8.75;1.30;;;7.00;91.30;;;;;;5133500;28;20023;-76
2023/01/10 11:10:44;;;;;;;10.75;1.90;;;7.10;91.20;;;;;;5133603;28;20016;-75
2023/01/10 11:13:33;;;;;;;8.90;1.83;;;7.10;91.30;;;;;;5133551;28;20049;-76
2023/01/10 11:16:05;;;;;;;9.63;1.80;;;7.10;91.30;;;;;;5133567;28;20054;-76
2023/01/10 11:18:32;;;;;;;8.65;1.27;;;7.10;91.30;;;;;;5133434;28;20023;-76
2023/01/10 11:21:07;;;;;;;7.32;2.10;;;7.10;91.10;;;;;;5132458;28;20058;-76
2023/01/10 11:23:51;;;;;;;13.20;2.00;;;7.20;91.30;;;;;;5132522;28;20032;-76
2023/01/10 11:26:39;;;;;;;9.98;2.58;;;7.10;91.20;;;;;;5133402;28;20028;-76
2023/01/10 11:29:26;;;;;;;10.65;2.28;;;7.20;91.20;;;;;;5132360;28;20030;-75
2023/01/10 11:31:54;;;;;;;6.35;2.20;;;7.20;91.20;;;;;;5133438;28;20026;-75
2023/01/10 11:34:26;;;;;;;11.52;2.53;;;7.20;91.10;;;;;;5135267;28;20026;-76
2023/01/10 11:37:17;;;;;;;6.65;1.90;;;7.20;91.10;;;;;;5136848;28;20051;-76
2023/01/10 11:39:43;;;;;;;8.98;1.83;;;7.20;91.50;;;;;;5135837;28;20024;-76
2023/01/10 11:42:28;;;;;;;9.88;1.80;;;7.30;91.40;;;;;;5135988;28;20020;-76
2023/01/10 11:44:55;;;;;;;4.72;1.35;;;7.30;91.20;;;;;;5135982;28;20036;-75
2023/01/10 11:47:21;;;;;;;11.68;2.33;;;7.30;91.10;;;;;;5135811;28;20031;-76
2023/01/10 11:49:48;;;;;;;3.13;1.25;;;7.30;91.30;;;;;;5135923;28;20027;-76
2023/01/10 11:52:26;;;;;;;3.75;1.20;;;7.30;91.10;;;;;;5136902;28;20080;-76
2023/01/10 11:54:55;;;;;;;14.27;2.25;;;7.40;91.20;;;;;;5135771;28;20027;-76
2023/01/10 11:57:26;;;;;;;6.28;1.60;;;7.40;91.30;;;;;;5135614;28;20023;-76
2023/01/10 11:59:56;;;;;;;11.25;1.65;;;7.40;91.10;;;;;;5135682;28;20024;-76
2023/01/10 12:02:25;;;;;;;7.65;1.73;;;7.30;91.20;;;;;;5136629;28;20031;-76
2023/01/10 12:04:52;;;;;;;8.23;1.88;;;7.40;91.20;;;;;;5135470;28;20031;-76
2023/01/10 12:07:18;;;;;;;16.63;2.80;;;7.40;91.20;;;;;;5135413;28;20028;-76
2023/01/10 12:09:53;;;;;;;4.95;1.48;;;7.40;91.40;;;;;;5135372;28;20047;-75
2023/01/10 12:12:24;;;;;;;7.00;1.88;;;7.40;91.30;;;;;;5135285;28;20030;-76
2023/01/10 12:14:51;;;;;;;9.32;1.80;;;7.50;91.40;;;;;;5136352;28;20020;-76
2023/01/10 12:17:27;;;;;;;9.65;1.50;;;7.50;91.50;;;;;;5135239;28;20027;-76
2023/01/10 12:19:57;;;;;;;6.47;1.67;;;7.50;91.30;;;;;;5136260;28;20028;-76
2023/01/10 12:22:44;;;;;;;10.95;1.95;;;7.50;91.00;;;;;;5135234;28;20043;-75
2023/01/10 12:25:34;;;;;;;5.97;2.10;;;7.50;91.20;;;;;;5135124;28;20023;-76
2023/01/10 12:28:00;;;;;;;4.20;1.38;;;7.50;91.10;;;;;;5136212;28;20019;-75
2023/01/10 12:30:42;;;;;;;4.03;1.55;;;7.60;91.00;;;;;;5135097;28;20025;-76
2023/01/10 12:33:17;;;;;;;7.45;1.80;;;7.60;91.10;;;;;;5134962;28;20042;-76
2023/01/10 12:35:56;;;;;;;4.53;1.00;;;7.60;91.20;;;;;;5134762;28;20063;-75
2023/01/10 12:44:10;;;;;;;6.68;1.95;;;7.60;90.80;;;;;;5136030;28;20040;-75
2023/01/10 12:44:14;;;;;;;12.82;2.97;;;7.60;91.00;;;;;;5135231;28;20053;-76
2023/01/10 12:46:48;;;;;;;13.70;2.47;;;7.70;90.90;;;;;;5135763;28;20023;-76
2023/01/10 12:49:24;;;;;;;7.97;2.13;;;7.70;90.80;;;;;;5135702;28;20083;-75
2023/01/10 12:51:53;;;;;;;6.18;1.60;;;7.70;90.70;;;;;;5134668;28;20382;-75
2023/01/10 12:54:24;;;;;;;9.65;2.72;;;7.70;90.70;;;;;;5134647;28;20044;-75
2023/01/10 12:56:52;;;;;;;9.27;1.80;;;7.70;90.60;;;;;;5135550;28;20016;-75
2023/01/10 12:59:41;;;;;;;10.02;1.98;;;7.70;90.70;;;;;;5135426;28;20055;-76
2023/01/10 13:02:16;;;;;;;10.57;1.88;;;7.80;90.60;;;;;;5134388;28;20026;-76
2023/01/10 13:04:47;;;;;;;7.70;1.65;;;7.80;90.70;;;;;;5134112;28;20020;-76
2023/01/10 13:07:14;;;;;;;11.20;1.90;;;7.80;90.70;;;;;;5135360;28;20027;-76
2023/01/10 13:09:41;;;;;;;8.07;2.45;;;7.80;90.40;;;;;;5117413;28;20034;-75
2023/01/10 13:12:16;;;;;;;8.70;2.75;;;7.90;90.40;;;;;;5134132;28;20015;-76
2023/01/10 13:15:06;;;;;;;5.45;1.20;;;7.80;90.50;;;;;;5134186;28;20031;-76
2023/01/10 13:17:36;;;;;;;13.02;2.22;;;7.90;90.20;;;;;;5135117;28;20053;-75
2023/01/10 13:20:20;;;;;;;3.67;1.48;;;7.90;90.40;;;;;;5135121;27;20044;-75
2023/01/10 13:22:55;;;;;;;8.80;1.77;;;7.90;89.80;;;;;;5134971;28;20023;-75